sensor_id;sensor_type;location;lat;lon;timestamp;pressure;altitude;pressure_sealevel;temperature;humidity
68628;BME280;55611;48.602;9.490;2023-12-29T00:01:39;96950;;;14.4;56
68628;BME280;55611;48.602;9.490;2023-12-29T00:04:09;96940;;;14.2;56
68628;BME280;55611;48.602;9.490;2023-12-29T00:06:40;96940;;;14.2;56
68628;BME280;55611;48.602;9.490;2023-12-29T00:09:11;96930;;;14.2;56
68628;BME280;55611;48.602;9.490;2023-12-29T00:11:42;96930;;;14.1;56
68628;BME280;55611;48.602;9.490;2023-12-29T00:14:12;96930;;;14.2;56
68628;BME280;55611;48.602;9.490;2023-12-29T00:16:43;96930;;;14.1;56.5
68628;BME280;55611;48.602;9.490;2023-12-29T00:19:14;96930;;;14;56.5
68628;BME280;55611;48.602;9.490;2023-12-29T00:21:45;96930;;;14.1;56.5
68628;BME280;55611;48.602;9.490;2023-12-29T00:24:15;96930;;;14;56
68628;BME280;55611;48.602;9.490;2023-12-29T00:26:46;96920;;;14;56
68628;BME280;55611;48.602;9.490;2023-12-29T00:29:17;96940;;;13.9;56.5
68628;BME280;55611;48.602;9.490;2023-12-29T00:31:48;96940;;;14;56
68628;BME280;55611;48.602;9.490;2023-12-29T00:34:19;96930;;;13.9;56
68628;BME280;55611;48.602;9.490;2023-12-29T00:36:49;96940;;;13.9;56.5
68628;BME280;55611;48.602;9.490;2023-12-29T00:39:20;96940;;;13.9;56.5
68628;BME280;55611;48.602;9.490;2023-12-29T00:44:22;96940;;;13.9;56.5
68628;BME280;55611;48.602;9.490;2023-12-29T00:46:52;96940;;;13.9;56.5
68628;BME280;55611;48.602;9.490;2023-12-29T00:49:23;96910;;;14.1;56.5
68628;BME280;55611;48.602;9.490;2023-12-29T00:51:54;96900;;;14.1;56.5
68628;BME280;55611;48.602;9.490;2023-12-29T00:54:25;96890;;;14.1;56.5
68628;BME280;55611;48.602;9.490;2023-12-29T00:56:56;96900;;;14.1;56.5
68628;BME280;55611;48.602;9.490;2023-12-29T00:59:26;96900;;;14.1;56.5
68628;BME280;55611;48.602;9.490;2023-12-29T01:01:57;96920;;;14.1;56.5
68628;BME280;55611;48.602;9.490;2023-12-29T01:04:28;96910;;;14.1;56.5
68628;BME280;55611;48.602;9.490;2023-12-29T01:06:59;96920;;;14.2;56.5
68628;BME280;55611;48.602;9.490;2023-12-29T01:09:30;96920;;;14.4;56.5
68628;BME280;55611;48.602;9.490;2023-12-29T01:12:00;96920;;;14.4;56.5
68628;BME280;55611;48.602;9.490;2023-12-29T01:14:31;96920;;;14.4;56.5
68628;BME280;55611;48.602;9.490;2023-12-29T01:17:02;96910;;;14.4;56.5
68628;BME280;55611;48.602;9.490;2023-12-29T01:19:33;96920;;;14.4;56.5
68628;BME280;55611;48.602;9.490;2023-12-29T01:22:03;96920;;;14.4;56.5
68628;BME280;55611;48.602;9.490;2023-12-29T01:24:34;96920;;;14.5;56.5
68628;BME280;55611;48.602;9.490;2023-12-29T01:27:05;96930;;;14.5;56.5
68628;BME280;55611;48.602;9.490;2023-12-29T01:29:36;96930;;;14.5;56.5
68628;BME280;55611;48.602;9.490;2023-12-29T01:32:07;96930;;;14.4;56.5
68628;BME280;55611;48.602;9.490;2023-12-29T01:34:37;96940;;;14.4;56.5
68628;BME280;55611;48.602;9.490;2023-12-29T01:37:08;96920;;;14.4;56.5
68628;BME280;55611;48.602;9.490;2023-12-29T01:39:39;96930;;;14.5;56.5
68628;BME280;55611;48.602;9.490;2023-12-29T01:42:10;96960;;;14.5;56.5
68628;BME280;55611;48.602;9.490;2023-12-29T01:44:40;96930;;;14.5;56.5
68628;BME280;55611;48.602;9.490;2023-12-29T01:47:13;96950;;;14.5;56.5
68628;BME280;55611;48.602;9.490;2023-12-29T01:49:45;96930;;;14.6;56.5
68628;BME280;55611;48.602;9.490;2023-12-29T01:52:13;96930;;;14.5;57
68628;BME280;55611;48.602;9.490;2023-12-29T01:54:44;96940;;;14.5;57
68628;BME280;55611;48.602;9.490;2023-12-29T01:57:14;96920;;;14.4;57
68628;BME280;55611;48.602;9.490;2023-12-29T01:59:45;96910;;;14.4;57
68628;BME280;55611;48.602;9.490;2023-12-29T02:02:16;96910;;;14.5;56.5
68628;BME280;55611;48.602;9.490;2023-12-29T02:04:46;96920;;;14.4;56.5
68628;BME280;55611;48.602;9.490;2023-12-29T02:07:17;96910;;;14.3;56.5
68628;BME280;55611;48.602;9.490;2023-12-29T02:09:48;96910;;;14.3;56.5
68628;BME280;55611;48.602;9.490;2023-12-29T02:12:19;96910;;;14.3;56.5
68628;BME280;55611;48.602;9.490;2023-12-29T02:14:50;96930;;;14.3;56.5
68628;BME280;55611;48.602;9.490;2023-12-29T02:17:22;96910;;;14.3;56.5
68628;BME280;55611;48.602;9.490;2023-12-29T02:19:51;96890;;;14.2;56.5
68628;BME280;55611;48.602;9.490;2023-12-29T02:22:22;96900;;;14.1;56.5
68628;BME280;55611;48.602;9.490;2023-12-29T02:24:53;96910;;;14;56.5
68628;BME280;55611;48.602;9.490;2023-12-29T02:27:41;96890;;;14;56.5
68628;BME280;55611;48.602;9.490;2023-12-29T02:30:03;96900;;;14;57
68628;BME280;55611;48.602;9.490;2023-12-29T02:32:25;96910;;;14.1;57
68628;BME280;55611;48.602;9.490;2023-12-29T02:37:27;96890;;;14;57
68628;BME280;55611;48.602;9.490;2023-12-29T02:39:59;96900;;;14.1;56.5
68628;BME280;55611;48.602;9.490;2023-12-29T02:42:28;96880;;;14.1;56.5
68628;BME280;55611;48.602;9.490;2023-12-29T02:44:59;96880;;;14.1;56.5
68628;BME280;55611;48.602;9.490;2023-12-29T02:47:30;96890;;;14.1;56.5
68628;BME280;55611;48.602;9.490;2023-12-29T02:50:00;96890;;;14.1;56.5
68628;BME280;55611;48.602;9.490;2023-12-29T02:52:31;96880;;;14.1;57
68628;BME280;55611;48.602;9.490;2023-12-29T02:55:02;96880;;;14.2;56.5
68628;BME280;55611;48.602;9.490;2023-12-29T02:57:33;96880;;;14.2;56.5
68628;BME280;55611;48.602;9.490;2023-12-29T03:00:04;96890;;;14.1;56.5
68628;BME280;55611;48.602;9.490;2023-12-29T03:02:34;96900;;;14.1;56.5
68628;BME280;55611;48.602;9.490;2023-12-29T03:05:05;96890;;;14.1;57
68628;BME280;55611;48.602;9.490;2023-12-29T03:07:36;96870;;;14.1;57
68628;BME280;55611;48.602;9.490;2023-12-29T03:10:07;96870;;;14.1;57
68628;BME280;55611;48.602;9.490;2023-12-29T03:12:37;96890;;;14.1;56.5
68628;BME280;55611;48.602;9.490;2023-12-29T03:15:08;96880;;;14.1;56.5
68628;BME280;55611;48.602;9.490;2023-12-29T03:17:51;96880;;;14.1;57
68628;BME280;55611;48.602;9.490;2023-12-29T03:20:29;96860;;;14.2;57
68628;BME280;55611;48.602;9.490;2023-12-29T03:22:40;96860;;;14.2;56.5
68628;BME280;55611;48.602;9.490;2023-12-29T03:25:11;96870;;;14.2;56.5
68628;BME280;55611;48.602;9.490;2023-12-29T03:27:42;96840;;;14.2;56.5
68628;BME280;55611;48.602;9.490;2023-12-29T03:30:13;96820;;;14.2;56.5
68628;BME280;55611;48.602;9.490;2023-12-29T03:32:44;96840;;;14.1;56.5
68628;BME280;55611;48.602;9.490;2023-12-29T03:35:14;96850;;;14.1;56.5
68628;BME280;55611;48.602;9.490;2023-12-29T03:37:45;96870;;;14;56.5
68628;BME280;55611;48.602;9.490;2023-12-29T03:40:16;96870;;;13.9;56.5
68628;BME280;55611;48.602;9.490;2023-12-29T03:42:47;96840;;;13.9;56.5
68628;BME280;55611;48.602;9.490;2023-12-29T03:45:17;96840;;;13.9;56.5
68628;BME280;55611;48.602;9.490;2023-12-29T03:47:48;96860;;;13.9;56.5
68628;BME280;55611;48.602;9.490;2023-12-29T03:50:19;96850;;;13.8;56.5
68628;BME280;55611;48.602;9.490;2023-12-29T03:52:50;96830;;;13.9;56.5
68628;BME280;55611;48.602;9.490;2023-12-29T03:55:21;96810;;;13.9;56.5
68628;BME280;55611;48.602;9.490;2023-12-29T03:57:51;96840;;;13.9;56.5
68628;BME280;55611;48.602;9.490;2023-12-29T04:00:22;96850;;;14;56.5
68628;BME280;55611;48.602;9.490;2023-12-29T04:02:53;96840;;;14;56.5
68628;BME280;55611;48.602;9.490;2023-12-29T04:05:24;96830;;;14.1;56.5
68628;BME280;55611;48.602;9.490;2023-12-29T04:07:54;96820;;;14.1;56.5
68628;BME280;55611;48.602;9.490;2023-12-29T04:10:26;96820;;;13.9;56.5
68628;BME280;55611;48.602;9.490;2023-12-29T04:12:56;96830;;;13.9;56.5
68628;BME280;55611;48.602;9.490;2023-12-29T04:15:27;96840;;;13.9;56.5
68628;BME280;55611;48.602;9.490;2023-12-29T04:17:58;96850;;;14;56.5
68628;BME280;55611;48.602;9.490;2023-12-29T04:20:28;96830;;;14.1;56.5
68628;BME280;55611;48.602;9.490;2023-12-29T04:22:59;96830;;;14.2;56.5
68628;BME280;55611;48.602;9.490;2023-12-29T04:25:30;96830;;;14.2;56
68628;BME280;55611;48.602;9.490;2023-12-29T04:28:01;96800;;;14.1;56
68628;BME280;55611;48.602;9.490;2023-12-29T04:30:31;96830;;;14.1;56.5
68628;BME280;55611;48.602;9.490;2023-12-29T04:33:02;96840;;;14.1;56.5
68628;BME280;55611;48.602;9.490;2023-12-29T04:35:33;96840;;;14.1;56.5
68628;BME280;55611;48.602;9.490;2023-12-29T04:38:04;96820;;;14.1;56
68628;BME280;55611;48.602;9.490;2023-12-29T04:40:35;96810;;;14.1;56
68628;BME280;55611;48.602;9.490;2023-12-29T04:43:05;96810;;;14.1;56
68628;BME280;55611;48.602;9.490;2023-12-29T04:45:36;96840;;;14.1;56
68628;BME280;55611;48.602;9.490;2023-12-29T04:48:07;96850;;;14;56
68628;BME280;55611;48.602;9.490;2023-12-29T04:50:38;96850;;;14.1;56
68628;BME280;55611;48.602;9.490;2023-12-29T04:53:08;96840;;;14.1;56
68628;BME280;55611;48.602;9.490;2023-12-29T04:55:39;96850;;;14.1;56
68628;BME280;55611;48.602;9.490;2023-12-29T04:58:10;96860;;;14.1;56.5
68628;BME280;55611;48.602;9.490;2023-12-29T05:00:41;96840;;;14.1;56.5
68628;BME280;55611;48.602;9.490;2023-12-29T05:03:11;96840;;;14.2;56.5
68628;BME280;55611;48.602;9.490;2023-12-29T05:05:42;96860;;;14;56.5
68628;BME280;55611;48.602;9.490;2023-12-29T05:08:13;96850;;;14;56.5
68628;BME280;55611;48.602;9.490;2023-12-29T05:10:44;96850;;;13.9;56.5
68628;BME280;55611;48.602;9.490;2023-12-29T05:13:15;96850;;;14;56
68628;BME280;55611;48.602;9.490;2023-12-29T05:15:45;96850;;;14;56
68628;BME280;55611;48.602;9.490;2023-12-29T05:18:16;96850;;;14.1;56
68628;BME280;55611;48.602;9.490;2023-12-29T05:20:47;96860;;;14.1;56
68628;BME280;55611;48.602;9.490;2023-12-29T05:23:18;96850;;;14;56
68628;BME280;55611;48.602;9.490;2023-12-29T05:25:48;96830;;;14.1;56
68628;BME280;55611;48.602;9.490;2023-12-29T05:28:19;96840;;;14;56
68628;BME280;55611;48.602;9.490;2023-12-29T05:30:50;96820;;;14;56
68628;BME280;55611;48.602;9.490;2023-12-29T05:33:21;96840;;;14;56
68628;BME280;55611;48.602;9.490;2023-12-29T05:35:52;96840;;;14;56
68628;BME280;55611;48.602;9.490;2023-12-29T05:38:22;96850;;;13.9;56
68628;BME280;55611;48.602;9.490;2023-12-29T05:40:53;96850;;;14;56
68628;BME280;55611;48.602;9.490;2023-12-29T05:43:24;96870;;;14;56
68628;BME280;55611;48.602;9.490;2023-12-29T05:45:55;96850;;;14.1;56
68628;BME280;55611;48.602;9.490;2023-12-29T05:48:25;96830;;;14;56
68628;BME280;55611;48.602;9.490;2023-12-29T05:50:56;96860;;;14.1;56
68628;BME280;55611;48.602;9.490;2023-12-29T05:53:27;96860;;;14.2;56
68628;BME280;55611;48.602;9.490;2023-12-29T05:55:58;96850;;;14.2;56
68628;BME280;55611;48.602;9.490;2023-12-29T05:58:29;96870;;;14.1;56
68628;BME280;55611;48.602;9.490;2023-12-29T06:00:59;96840;;;14.1;56
68628;BME280;55611;48.602;9.490;2023-12-29T06:03:30;96850;;;14;56
68628;BME280;55611;48.602;9.490;2023-12-29T06:06:01;96860;;;14.1;56
68628;BME280;55611;48.602;9.490;2023-12-29T06:08:32;96850;;;14.1;56
68628;BME280;55611;48.602;9.490;2023-12-29T06:11:02;96860;;;14.1;56
68628;BME280;55611;48.602;9.490;2023-12-29T06:13:33;96870;;;14.1;56
68628;BME280;55611;48.602;9.490;2023-12-29T06:16:04;96870;;;14.2;56
68628;BME280;55611;48.602;9.490;2023-12-29T06:21:06;96880;;;14.2;56
68628;BME280;55611;48.602;9.490;2023-12-29T06:23:36;96860;;;14.2;56
68628;BME280;55611;48.602;9.490;2023-12-29T06:26:13;96870;;;14.2;56.5
68628;BME280;55611;48.602;9.490;2023-12-29T06:28:38;96870;;;14.3;56
68628;BME280;55611;48.602;9.490;2023-12-29T06:31:09;96870;;;14.3;56
68628;BME280;55611;48.602;9.490;2023-12-29T06:33:41;96860;;;14.4;56
68628;BME280;55611;48.602;9.490;2023-12-29T06:36:10;96870;;;14.3;56
68628;BME280;55611;48.602;9.490;2023-12-29T06:38:41;96860;;;14.3;56
68628;BME280;55611;48.602;9.490;2023-12-29T06:41:12;96870;;;14.3;56
68628;BME280;55611;48.602;9.490;2023-12-29T06:43:42;96860;;;14.3;56.5
68628;BME280;55611;48.602;9.490;2023-12-29T06:46:13;96840;;;14.3;56
68628;BME280;55611;48.602;9.490;2023-12-29T06:48:44;96850;;;14.2;56
68628;BME280;55611;48.602;9.490;2023-12-29T06:51:15;96870;;;14.1;56
68628;BME280;55611;48.602;9.490;2023-12-29T06:53:46;96840;;;14.2;56
68628;BME280;55611;48.602;9.490;2023-12-29T06:56:16;96840;;;14.2;56
68628;BME280;55611;48.602;9.490;2023-12-29T06:58:47;96850;;;14.1;56
68628;BME280;55611;48.602;9.490;2023-12-29T07:01:18;96860;;;14.1;56
68628;BME280;55611;48.602;9.490;2023-12-29T07:03:49;96860;;;14.1;55.5
68628;BME280;55611;48.602;9.490;2023-12-29T07:06:19;96860;;;14.1;56
68628;BME280;55611;48.602;9.490;2023-12-29T07:08:50;96860;;;14.1;55.5
68628;BME280;55611;48.602;9.490;2023-12-29T07:11:21;96860;;;14.1;56
68628;BME280;55611;48.602;9.490;2023-12-29T07:13:52;96840;;;14;56
68628;BME280;55611;48.602;9.490;2023-12-29T07:16:22;96850;;;14.1;56
68628;BME280;55611;48.602;9.490;2023-12-29T07:18:53;96860;;;14.1;56
68628;BME280;55611;48.602;9.490;2023-12-29T07:21:24;96850;;;14.1;56
68628;BME280;55611;48.602;9.490;2023-12-29T07:23:55;96860;;;14.2;56
68628;BME280;55611;48.602;9.490;2023-12-29T07:26:26;96870;;;14.3;56
68628;BME280;55611;48.602;9.490;2023-12-29T07:28:56;96860;;;14.3;56
68628;BME280;55611;48.602;9.490;2023-12-29T07:31:27;96850;;;14.3;56
68628;BME280;55611;48.602;9.490;2023-12-29T07:33:58;96860;;;14.3;56
68628;BME280;55611;48.602;9.490;2023-12-29T07:36:29;96860;;;14.2;56
68628;BME280;55611;48.602;9.490;2023-12-29T07:38:59;96860;;;14.2;56
68628;BME280;55611;48.602;9.490;2023-12-29T07:41:30;96850;;;14.2;56
68628;BME280;55611;48.602;9.490;2023-12-29T07:44:01;96830;;;14.3;56
68628;BME280;55611;48.602;9.490;2023-12-29T07:46:32;96850;;;14.3;56
68628;BME280;55611;48.602;9.490;2023-12-29T07:49:03;96860;;;14.3;56
68628;BME280;55611;48.602;9.490;2023-12-29T07:51:33;96850;;;14.3;56
68628;BME280;55611;48.602;9.490;2023-12-29T07:54:04;96850;;;14.3;56
68628;BME280;55611;48.602;9.490;2023-12-29T07:56:35;96880;;;14.4;56
68628;BME280;55611;48.602;9.490;2023-12-29T07:59:06;96850;;;14.4;56
68628;BME280;55611;48.602;9.490;2023-12-29T08:01:37;96860;;;14.4;56
68628;BME280;55611;48.602;9.490;2023-12-29T08:04:07;96860;;;14.4;56
68628;BME280;55611;48.602;9.490;2023-12-29T08:06:38;96850;;;14.4;56
68628;BME280;55611;48.602;9.490;2023-12-29T08:09:09;96860;;;14.4;56
68628;BME280;55611;48.602;9.490;2023-12-29T08:11:40;96870;;;14.3;56
68628;BME280;55611;48.602;9.490;2023-12-29T08:14:10;96850;;;14.3;56
68628;BME280;55611;48.602;9.490;2023-12-29T08:16:41;96840;;;14.4;56
68628;BME280;55611;48.602;9.490;2023-12-29T08:19:12;96850;;;14.4;56
68628;BME280;55611;48.602;9.490;2023-12-29T08:21:43;96850;;;14.5;56
68628;BME280;55611;48.602;9.490;2023-12-29T08:24:14;96860;;;14.5;56
68628;BME280;55611;48.602;9.490;2023-12-29T08:26:45;96870;;;14.5;56
68628;BME280;55611;48.602;9.490;2023-12-29T08:29:15;96860;;;14.6;56
68628;BME280;55611;48.602;9.490;2023-12-29T08:31:46;96870;;;14.7;56
68628;BME280;55611;48.602;9.490;2023-12-29T08:34:17;96860;;;14.7;56
68628;BME280;55611;48.602;9.490;2023-12-29T08:36:47;96880;;;14.8;56
68628;BME280;55611;48.602;9.490;2023-12-29T08:39:18;96880;;;14.8;56
68628;BME280;55611;48.602;9.490;2023-12-29T08:41:49;96870;;;14.8;56
68628;BME280;55611;48.602;9.490;2023-12-29T08:44:20;96860;;;14.9;56.5
68628;BME280;55611;48.602;9.490;2023-12-29T08:46:51;96860;;;15;56.5
68628;BME280;55611;48.602;9.490;2023-12-29T08:49:21;96860;;;15;56
68628;BME280;55611;48.602;9.490;2023-12-29T08:51:52;96860;;;15.1;56
68628;BME280;55611;48.602;9.490;2023-12-29T08:54:23;96860;;;15.2;56
68628;BME280;55611;48.602;9.490;2023-12-29T08:56:54;96850;;;15.2;56
68628;BME280;55611;48.602;9.490;2023-12-29T08:59:24;96860;;;15.3;56
68628;BME280;55611;48.602;9.490;2023-12-29T09:01:55;96850;;;15.2;56
68628;BME280;55611;48.602;9.490;2023-12-29T09:04:26;96860;;;15.2;56
68628;BME280;55611;48.602;9.490;2023-12-29T09:06:57;96860;;;15.1;56
68628;BME280;55611;48.602;9.490;2023-12-29T09:09:27;96870;;;15.1;56.5
68628;BME280;55611;48.602;9.490;2023-12-29T09:11:58;96870;;;15.1;56
68628;BME280;55611;48.602;9.490;2023-12-29T09:14:29;96860;;;15;56
68628;BME280;55611;48.602;9.490;2023-12-29T09:17:00;96870;;;15;56.5
68628;BME280;55611;48.602;9.490;2023-12-29T09:19:31;96870;;;15;56.5
68628;BME280;55611;48.602;9.490;2023-12-29T09:22:01;96870;;;15.1;56
68628;BME280;55611;48.602;9.490;2023-12-29T09:24:32;96870;;;15.1;56
68628;BME280;55611;48.602;9.490;2023-12-29T09:27:03;96860;;;15.1;56.5
68628;BME280;55611;48.602;9.490;2023-12-29T09:29:34;96870;;;15.1;56.5
68628;BME280;55611;48.602;9.490;2023-12-29T09:32:04;96880;;;15.1;56.5
68628;BME280;55611;48.602;9.490;2023-12-29T09:34:35;96870;;;15.1;56.5
68628;BME280;55611;48.602;9.490;2023-12-29T09:37:06;96880;;;15;56.5
68628;BME280;55611;48.602;9.490;2023-12-29T09:39:37;96870;;;15.1;56.5
68628;BME280;55611;48.602;9.490;2023-12-29T09:42:08;96880;;;15;56.5
68628;BME280;55611;48.602;9.490;2023-12-29T09:44:38;96890;;;15.1;56.5
68628;BME280;55611;48.602;9.490;2023-12-29T09:47:09;96880;;;15.2;56.5
68628;BME280;55611;48.602;9.490;2023-12-29T09:49:40;96900;;;15.2;56.5
68628;BME280;55611;48.602;9.490;2023-12-29T09:52:11;96900;;;15.3;56.5
68628;BME280;55611;48.602;9.490;2023-12-29T09:54:42;96890;;;15.3;56.5
68628;BME280;55611;48.602;9.490;2023-12-29T09:57:12;96900;;;15.4;56.5
68628;BME280;55611;48.602;9.490;2023-12-29T09:59:43;96890;;;15.4;56.5
68628;BME280;55611;48.602;9.490;2023-12-29T10:02:14;96890;;;15.4;56.5
68628;BME280;55611;48.602;9.490;2023-12-29T10:04:44;96890;;;15.4;56.5
68628;BME280;55611;48.602;9.490;2023-12-29T10:07:19;96890;;;15.4;56.5
68628;BME280;55611;48.602;9.490;2023-12-29T10:09:46;96890;;;15.4;56.5
68628;BME280;55611;48.602;9.490;2023-12-29T10:12:17;96880;;;15.4;56.5
68628;BME280;55611;48.602;9.490;2023-12-29T10:14:53;96910;;;15.4;56.5
68628;BME280;55611;48.602;9.490;2023-12-29T10:17:26;96890;;;15.3;56.5
68628;BME280;55611;48.602;9.490;2023-12-29T10:19:50;96890;;;15.3;56.5
68628;BME280;55611;48.602;9.490;2023-12-29T10:22:21;96890;;;15.3;56.5
68628;BME280;55611;48.602;9.490;2023-12-29T10:24:51;96890;;;15.3;56.5
68628;BME280;55611;48.602;9.490;2023-12-29T10:27:21;96880;;;15.4;56.5
68628;BME280;55611;48.602;9.490;2023-12-29T10:29:52;96890;;;15.4;56.5
68628;BME280;55611;48.602;9.490;2023-12-29T10:32:23;96890;;;15.3;56.5
68628;BME280;55611;48.602;9.490;2023-12-29T10:35:07;96900;;;15.2;56.5
68628;BME280;55611;48.602;9.490;2023-12-29T10:37:25;96870;;;15.2;56.5
68628;BME280;55611;48.602;9.490;2023-12-29T10:39:55;96870;;;15.2;56
68628;BME280;55611;48.602;9.490;2023-12-29T10:42:26;96860;;;15.2;56
68628;BME280;55611;48.602;9.490;2023-12-29T10:45:05;96850;;;15.2;56
68628;BME280;55611;48.602;9.490;2023-12-29T10:47:28;96870;;;15.2;56.5
68628;BME280;55611;48.602;9.490;2023-12-29T10:49:59;96860;;;15.1;56
68628;BME280;55611;48.602;9.490;2023-12-29T10:52:29;96840;;;15;56.5
68628;BME280;55611;48.602;9.490;2023-12-29T10:55:04;96850;;;15;56.5
68628;BME280;55611;48.602;9.490;2023-12-29T10:57:31;96830;;;15.1;56.5
68628;BME280;55611;48.602;9.490;2023-12-29T11:00:02;96830;;;15.2;56
68628;BME280;55611;48.602;9.490;2023-12-29T11:02:32;96850;;;15.2;56
68628;BME280;55611;48.602;9.490;2023-12-29T11:07:35;96820;;;15.1;56
68628;BME280;55611;48.602;9.490;2023-12-29T11:10:06;96830;;;15.2;56
68628;BME280;55611;48.602;9.490;2023-12-29T11:12:36;96830;;;15.3;56
68628;BME280;55611;48.602;9.490;2023-12-29T11:15:06;96830;;;15.3;56
68628;BME280;55611;48.602;9.490;2023-12-29T11:17:37;96820;;;15.3;56
68628;BME280;55611;48.602;9.490;2023-12-29T11:20:08;96810;;;15.3;56
68628;BME280;55611;48.602;9.490;2023-12-29T11:42:45;96800;;;15.2;56
68628;BME280;55611;48.602;9.490;2023-12-29T11:45:31;96800;;;15.3;56
68628;BME280;55611;48.602;9.490;2023-12-29T11:47:46;96800;;;15.3;56
68628;BME280;55611;48.602;9.490;2023-12-29T11:50:17;96790;;;15.2;56
68628;BME280;55611;48.602;9.490;2023-12-29T11:52:48;96810;;;15.3;56
68628;BME280;55611;48.602;9.490;2023-12-29T11:55:19;96800;;;15.4;56
68628;BME280;55611;48.602;9.490;2023-12-29T11:57:49;96800;;;15.4;56
68628;BME280;55611;48.602;9.490;2023-12-29T12:00:20;96800;;;15.4;56
68628;BME280;55611;48.602;9.490;2023-12-29T12:02:51;96790;;;15.5;56
68628;BME280;55611;48.602;9.490;2023-12-29T12:07:56;96800;;;15.6;56
68628;BME280;55611;48.602;9.490;2023-12-29T12:10:30;96790;;;15.7;56
68628;BME280;55611;48.602;9.490;2023-12-29T12:12:54;96800;;;15.7;56
68628;BME280;55611;48.602;9.490;2023-12-29T12:15:32;96780;;;15.6;56
68628;BME280;55611;48.602;9.490;2023-12-29T12:17:56;96790;;;15.6;56
68628;BME280;55611;48.602;9.490;2023-12-29T12:20:26;96790;;;15.6;56
68628;BME280;55611;48.602;9.490;2023-12-29T12:22:59;96780;;;15.6;56
68628;BME280;55611;48.602;9.490;2023-12-29T12:25:29;96790;;;15.5;56
68628;BME280;55611;48.602;9.490;2023-12-29T12:27:59;96770;;;15.4;56
68628;BME280;55611;48.602;9.490;2023-12-29T12:30:30;96800;;;15.3;56
68628;BME280;55611;48.602;9.490;2023-12-29T12:33:01;96780;;;15.3;56
68628;BME280;55611;48.602;9.490;2023-12-29T12:35:31;96790;;;15.4;56
68628;BME280;55611;48.602;9.490;2023-12-29T12:38:10;96800;;;15.4;56
68628;BME280;55611;48.602;9.490;2023-12-29T12:40:33;96770;;;15.2;56
68628;BME280;55611;48.602;9.490;2023-12-29T12:43:04;96770;;;15.1;56
68628;BME280;55611;48.602;9.490;2023-12-29T12:45:35;96760;;;15.2;56
68628;BME280;55611;48.602;9.490;2023-12-29T12:48:09;96760;;;15.2;55.5
68628;BME280;55611;48.602;9.490;2023-12-29T12:50:36;96770;;;15.2;55.5
68628;BME280;55611;48.602;9.490;2023-12-29T12:53:06;96750;;;15.2;55.5
68628;BME280;55611;48.602;9.490;2023-12-29T12:55:37;96790;;;15.2;56
68628;BME280;55611;48.602;9.490;2023-12-29T12:58:08;96750;;;15.2;56
68628;BME280;55611;48.602;9.490;2023-12-29T13:00:39;96750;;;15.3;56
68628;BME280;55611;48.602;9.490;2023-12-29T13:03:10;96740;;;15.3;56
68628;BME280;55611;48.602;9.490;2023-12-29T13:05:40;96770;;;15.3;56
68628;BME280;55611;48.602;9.490;2023-12-29T13:08:11;96770;;;15.2;56
68628;BME280;55611;48.602;9.490;2023-12-29T13:10:42;96760;;;15.2;56
68628;BME280;55611;48.602;9.490;2023-12-29T13:13:13;96760;;;15.2;56
68628;BME280;55611;48.602;9.490;2023-12-29T13:15:46;96750;;;15.2;56
68628;BME280;55611;48.602;9.490;2023-12-29T13:18:15;96760;;;15.2;56
68628;BME280;55611;48.602;9.490;2023-12-29T13:20:46;96740;;;15.2;56
68628;BME280;55611;48.602;9.490;2023-12-29T13:23:16;96770;;;15.1;56
68628;BME280;55611;48.602;9.490;2023-12-29T13:25:47;96770;;;15.1;56
68628;BME280;55611;48.602;9.490;2023-12-29T13:28:17;96750;;;15.2;56
68628;BME280;55611;48.602;9.490;2023-12-29T13:30:48;96740;;;15.1;56
68628;BME280;55611;48.602;9.490;2023-12-29T13:33:36;96760;;;15.1;55.5
68628;BME280;55611;48.602;9.490;2023-12-29T13:35:51;96740;;;15.1;55.5
68628;BME280;55611;48.602;9.490;2023-12-29T13:38:22;96780;;;15.1;55.5
68628;BME280;55611;48.602;9.490;2023-12-29T13:41:00;96790;;;15.2;55.5
68628;BME280;55611;48.602;9.490;2023-12-29T13:43:22;96770;;;15.2;55.5
68628;BME280;55611;48.602;9.490;2023-12-29T13:45:53;96770;;;15.2;55.5
68628;BME280;55611;48.602;9.490;2023-12-29T13:48:24;96790;;;15.2;55.5
68628;BME280;55611;48.602;9.490;2023-12-29T13:50:54;96750;;;15.2;55.5
68628;BME280;55611;48.602;9.490;2023-12-29T13:53:25;96790;;;15.2;55.5
68628;BME280;55611;48.602;9.490;2023-12-29T13:56:11;96780;;;15.1;56
68628;BME280;55611;48.602;9.490;2023-12-29T13:58:27;96760;;;15.2;56
68628;BME280;55611;48.602;9.490;2023-12-29T14:00:57;96800;;;15.2;56
68628;BME280;55611;48.602;9.490;2023-12-29T14:03:31;96810;;;15.2;55.5
68628;BME280;55611;48.602;9.490;2023-12-29T14:05:59;96780;;;15.1;55.5
68628;BME280;55611;48.602;9.490;2023-12-29T14:08:33;96810;;;15.1;56
68628;BME280;55611;48.602;9.490;2023-12-29T14:11:06;96800;;;15.1;55.5
68628;BME280;55611;48.602;9.490;2023-12-29T14:13:31;96810;;;15.1;55.5
68628;BME280;55611;48.602;9.490;2023-12-29T14:16:02;96780;;;15;55.5
68628;BME280;55611;48.602;9.490;2023-12-29T14:21:19;96800;;;14.9;55.5
68628;BME280;55611;48.602;9.490;2023-12-29T14:23:34;96800;;;14.9;55.5
68628;BME280;55611;48.602;9.490;2023-12-29T14:26:05;96790;;;14.9;55.5
68628;BME280;55611;48.602;9.490;2023-12-29T14:28:36;96790;;;14.8;55.5
68628;BME280;55611;48.602;9.490;2023-12-29T14:31:07;96800;;;14.9;55.5
68628;BME280;55611;48.602;9.490;2023-12-29T14:33:37;96790;;;14.9;55.5
68628;BME280;55611;48.602;9.490;2023-12-29T14:36:08;96810;;;14.8;55.5
68628;BME280;55611;48.602;9.490;2023-12-29T14:38:39;96790;;;14.8;55.5
68628;BME280;55611;48.602;9.490;2023-12-29T14:41:10;96780;;;14.8;55.5
68628;BME280;55611;48.602;9.490;2023-12-29T14:43:41;96790;;;14.8;55
68628;BME280;55611;48.602;9.490;2023-12-29T14:46:11;96800;;;14.8;55
68628;BME280;55611;48.602;9.490;2023-12-29T14:48:42;96790;;;14.6;55
68628;BME280;55611;48.602;9.490;2023-12-29T14:51:13;96790;;;14.7;55
68628;BME280;55611;48.602;9.490;2023-12-29T14:53:44;96790;;;14.6;55
68628;BME280;55611;48.602;9.490;2023-12-29T14:56:15;96800;;;14.6;55
68628;BME280;55611;48.602;9.490;2023-12-29T14:58:45;96810;;;14.5;55
68628;BME280;55611;48.602;9.490;2023-12-29T15:01:16;96810;;;14.5;55
68628;BME280;55611;48.602;9.490;2023-12-29T15:03:47;96790;;;14.6;55
68628;BME280;55611;48.602;9.490;2023-12-29T15:06:18;96800;;;14.5;55